createdAt,value
2018-04-12T00:01:04.811Z,62.30
2018-04-12T00:03:33.043Z,70.33
2018-04-12T00:06:01.315Z,69.50
2018-04-12T00:08:31.043Z,71.37
2018-04-12T00:11:00.047Z,68.13
2018-04-12T00:13:29.936Z,76.60
2018-04-12T00:15:58.041Z,78.77
2018-04-12T00:18:26.271Z,84.80
2018-04-12T00:20:55.675Z,79.23
2018-04-12T00:23:23.910Z,81.93
2018-04-12T00:25:53.646Z,85.80
2018-04-12T00:28:22.246Z,88.40
2018-04-12T00:30:51.987Z,84.80
2018-04-12T00:33:20.218Z,88.63
2018-04-12T00:35:49.206Z,84.17
2018-04-12T00:38:18.790Z,93.53
2018-04-12T00:40:46.907Z,91.53
2018-04-12T00:43:15.176Z,95.57
2018-04-12T00:45:43.411Z,101.63
2018-04-12T00:48:11.642Z,94.23
2018-04-12T00:50:40.243Z,97.87
2018-04-12T00:53:08.866Z,95.50
2018-04-12T00:55:37.191Z,90.80
2018-04-12T00:58:05.465Z,96.50
2018-04-12T01:00:33.704Z,87.87
2018-04-12T01:03:01.935Z,98.03
2018-04-12T01:05:30.471Z,94.83
2018-04-12T01:08:00.059Z,93.90
2018-04-12T01:10:28.158Z,84.33
2018-04-12T01:12:56.432Z,97.33
2018-04-12T01:15:24.667Z,101.40
2018-04-12T01:17:52.907Z,94.40
2018-04-12T01:20:21.620Z,100.10
2018-04-12T01:22:50.246Z,97.27
2018-04-12T01:25:18.480Z,95.73
2018-04-12T01:27:47.026Z,98.70
2018-04-12T01:30:16.770Z,90.17
2018-04-12T01:32:57.026Z,96.03
2018-04-12T01:35:25.263Z,99.03
2018-04-12T01:37:53.496Z,96.90
2018-04-12T01:40:22.069Z,100.10
2018-04-12T01:42:51.075Z,96.50
2018-04-12T01:45:20.083Z,98.37
2018-04-12T01:47:48.778Z,98.13
2018-04-12T01:50:18.523Z,94.07
2018-04-12T01:52:46.774Z,93.00
2018-04-12T01:55:15.830Z,91.30
2018-04-12T01:57:44.068Z,85.80
2018-04-12T02:00:12.695Z,87.03
2018-04-12T02:02:41.148Z,97.50
2018-04-12T02:05:10.895Z,89.20
2018-04-12T02:07:39.127Z,92.30
2018-04-12T02:10:09.070Z,91.00
2018-04-12T02:12:38.688Z,88.77
2018-04-12T02:15:07.687Z,91.90
2018-04-12T02:17:37.463Z,95.33
2018-04-12T02:20:05.699Z,86.93
2018-04-12T02:22:33.932Z,89.03
2018-04-12T02:25:02.551Z,91.43
2018-04-12T02:27:31.174Z,81.53
2018-04-12T02:29:59.416Z,83.57
2018-04-12T02:32:27.826Z,86.40
2018-04-12T02:34:56.476Z,76.50
2018-04-12T02:37:25.834Z,84.07
2018-04-12T02:39:54.630Z,81.93
2018-04-12T02:42:24.210Z,78.73
2018-04-12T02:44:52.318Z,75.10
2018-04-12T02:47:20.591Z,82.63
2018-04-12T02:49:48.824Z,74.83
2018-04-12T02:52:17.063Z,72.97
2018-04-12T02:54:46.698Z,76.60
2018-04-12T02:57:15.574Z,73.07
2018-04-12T02:59:49.346Z,75.73
2018-04-12T03:02:17.579Z,72.13
2018-04-12T03:04:46.953Z,72.97
2018-04-12T03:07:16.006Z,79.07
2018-04-12T03:09:45.055Z,70.93
2018-04-12T03:12:14.007Z,74.53
2018-04-12T03:14:43.758Z,74.13
2018-04-12T03:17:13.502Z,68.93
2018-04-12T03:19:42.501Z,75.03
2018-04-12T03:22:11.882Z,69.57
2018-04-12T03:24:40.878Z,70.27
2018-04-12T03:27:09.879Z,67.90
2018-04-12T03:29:38.908Z,73.00
2018-04-12T03:32:07.144Z,67.50
2018-04-12T03:34:36.722Z,72.03
2018-04-12T03:37:04.934Z,68.60
2018-04-12T03:39:34.522Z,66.90
2018-04-12T03:42:02.631Z,65.50
2018-04-12T03:44:31.270Z,70.43
2018-04-12T03:47:00.854Z,62.30
2018-04-12T03:49:29.035Z,73.33
2018-04-12T03:51:57.722Z,66.47
2018-04-12T03:54:27.306Z,68.87
2018-04-12T03:56:55.415Z,63.87
2018-04-12T03:59:23.778Z,70.33
2018-04-12T04:01:52.301Z,69.53
2018-04-12T04:04:20.527Z,67.03
2018-04-12T04:06:50.045Z,68.07
2018-04-12T04:09:18.263Z,66.50
2018-04-12T04:11:46.523Z,65.80
2018-04-12T04:14:26.639Z,63.00
2018-04-12T04:17:06.696Z,61.20
2018-04-12T04:19:47.025Z,61.23
2018-04-12T04:22:16.395Z,59.43
2018-04-12T04:24:44.628Z,58.43
2018-04-12T04:27:13.071Z,62.30
2018-04-12T04:29:42.814Z,57.73
2018-04-12T04:32:11.447Z,64.53
2018-04-12T04:34:39.922Z,64.77
2018-04-12T04:37:08.923Z,66.80
2018-04-12T04:39:37.154Z,62.83
2018-04-12T04:42:05.522Z,61.60
2018-04-12T04:44:33.759Z,65.83
2018-04-12T04:47:01.997Z,65.63
2018-04-12T04:49:30.303Z,65.30
2018-04-12T04:51:58.539Z,60.33
2018-04-12T04:54:27.914Z,63.90
2018-04-12T04:56:56.691Z,66.00
2018-04-12T04:59:26.274Z,65.53
2018-04-12T05:01:54.775Z,61.13
2018-04-12T05:04:24.472Z,61.20
2018-04-12T05:06:53.467Z,62.57
2018-04-12T05:09:22.470Z,62.60
2018-04-12T05:11:50.735Z,65.17
2018-04-12T05:14:18.975Z,62.47
2018-04-12T05:16:47.207Z,59.60
2018-04-12T05:19:17.454Z,62.60
2018-04-12T05:21:47.199Z,65.27
2018-04-12T05:24:15.432Z,58.97
2018-04-12T05:26:44.098Z,59.90
2018-04-12T05:29:13.681Z,59.63
2018-04-12T05:31:41.790Z,64.77
2018-04-12T05:34:10.150Z,60.23
2018-04-12T05:36:38.392Z,64.67
2018-04-12T05:39:07.974Z,69.67
2018-04-12T05:41:37.171Z,59.77
2018-04-12T05:44:06.754Z,56.30
2018-04-12T05:46:34.858Z,59.20
2018-04-12T05:49:03.551Z,63.20
2018-04-12T05:51:32.923Z,58.87
2018-04-12T05:54:01.153Z,66.30
2018-04-12T05:56:30.562Z,53.07
2018-04-12T05:58:58.790Z,56.90
2018-04-12T06:01:27.791Z,58.10
2018-04-12T06:03:57.525Z,55.73
2018-04-12T06:06:25.630Z,55.43
2018-04-12T06:08:55.370Z,60.30
2018-04-12T06:11:25.142Z,55.27
2018-04-12T06:13:53.379Z,57.63
2018-04-12T06:16:21.612Z,55.50
2018-04-12T06:18:50.753Z,59.73
2018-04-12T06:21:19.773Z,57.10
2018-04-12T06:23:48.738Z,55.73
2018-04-12T06:26:17.290Z,57.27
2018-04-12T06:28:45.919Z,64.57
2018-04-12T06:31:14.159Z,58.80
2018-04-12T06:33:42.430Z,60.80
2018-04-12T06:36:10.666Z,65.03
2018-04-12T06:38:38.898Z,55.97
2018-04-12T06:41:07.506Z,60.13
2018-04-12T06:43:35.746Z,62.30
2018-04-12T06:46:04.742Z,64.07
2018-04-12T06:48:33.230Z,66.77
2018-04-12T06:51:02.815Z,59.30
2018-04-12T06:53:32.058Z,58.17
2018-04-12T06:56:00.362Z,62.23
2018-04-12T06:58:30.103Z,59.30
2018-04-12T07:00:59.479Z,59.20
2018-04-12T07:03:28.163Z,64.80
2018-04-12T07:05:58.175Z,62.00
2018-04-12T07:08:26.383Z,63.17
2018-04-12T07:10:57.978Z,59.03
2018-04-12T07:13:26.978Z,60.90
2018-04-12T07:15:55.211Z,63.13
2018-04-12T07:18:24.396Z,58.13
2018-04-12T07:20:52.621Z,61.30
2018-04-12T07:23:22.363Z,61.67
2018-04-12T07:25:51.454Z,61.37
2018-04-12T07:28:19.686Z,64.73
2018-04-12T07:30:48.697Z,64.37
2018-04-12T07:33:18.956Z,60.47
2018-04-12T07:35:47.187Z,62.67
2018-04-12T07:38:16.775Z,65.23
2018-04-12T07:40:45.315Z,61.97
2018-04-12T07:43:13.546Z,62.93
2018-04-12T07:45:41.778Z,63.70
2018-04-12T07:48:11.642Z,60.03
2018-04-12T07:50:40.515Z,62.00
2018-04-12T07:53:08.752Z,61.47
2018-04-12T07:55:38.702Z,65.17
2018-04-12T07:58:07.951Z,65.00
2018-04-12T08:00:36.182Z,63.00
2018-04-12T08:03:05.799Z,67.33
2018-04-12T08:05:34.670Z,68.87
2018-04-12T08:08:03.007Z,64.63
2018-04-12T08:10:31.327Z,69.37
2018-04-12T08:13:00.698Z,65.67
2018-04-12T08:15:30.281Z,63.27
2018-04-12T08:17:59.770Z,65.77
2018-04-12T08:20:28.007Z,66.67
2018-04-12T08:22:56.247Z,65.63
2018-04-12T08:25:25.660Z,68.50
2018-04-12T08:27:53.895Z,64.60
2018-04-12T08:30:22.177Z,67.53
2018-04-12T08:32:50.598Z,72.30
2018-04-12T08:35:19.598Z,76.53
2018-04-12T08:37:49.099Z,69.20
2018-04-12T08:40:18.499Z,71.80
2018-04-12T08:42:46.730Z,68.17
2018-04-12T08:45:16.102Z,70.13
2018-04-12T08:47:45.156Z,69.03
2018-04-12T08:50:13.390Z,68.60
2018-04-12T08:52:42.391Z,69.10
2018-04-12T08:55:10.759Z,70.53
2018-04-12T08:57:39.391Z,72.10
2018-04-12T09:00:07.626Z,73.57
2018-04-12T09:02:35.898Z,76.37
2018-04-12T09:05:04.130Z,70.53
2018-04-12T09:07:33.706Z,69.80
2018-04-12T09:10:04.034Z,74.93
2018-04-12T09:12:33.407Z,72.90
2018-04-12T09:15:01.639Z,65.77
2018-04-12T09:17:30.379Z,77.90
2018-04-12T09:19:59.827Z,74.07
2018-04-12T09:22:28.798Z,70.90
2018-04-12T09:24:58.579Z,71.13
2018-04-12T09:27:26.811Z,75.47
2018-04-12T09:29:55.047Z,72.77
2018-04-12T09:32:23.343Z,69.97
2018-04-12T09:34:51.578Z,73.13
2018-04-12T09:37:20.579Z,76.23
2018-04-12T09:39:49.626Z,70.13
2018-04-12T09:42:18.622Z,67.97
2018-04-12T09:44:47.622Z,65.23
2018-04-12T09:47:16.255Z,62.53
2018-04-12T09:49:45.255Z,64.53
2018-04-12T09:52:14.263Z,65.30
2018-04-12T09:54:44.046Z,62.33
2018-04-12T09:57:12.282Z,58.50
2018-04-12T09:59:40.515Z,56.83
2018-04-12T10:02:10.162Z,59.53
2018-04-12T10:04:45.523Z,54.87
2018-04-12T10:07:17.422Z,56.93
2018-04-12T10:09:46.054Z,55.20
2018-04-12T10:12:15.630Z,51.83
2018-04-12T10:14:44.174Z,53.30
2018-04-12T10:17:12.407Z,52.47
2018-04-12T10:19:40.643Z,52.97
2018-04-12T10:22:09.179Z,52.10
2018-04-12T10:24:37.415Z,52.77
2018-04-12T10:27:06.787Z,51.63
2018-04-12T10:29:35.836Z,53.13
2018-04-12T10:32:05.431Z,51.33
2018-04-12T10:34:33.539Z,51.27
2018-04-12T10:37:02.067Z,49.73
2018-04-12T10:39:31.708Z,52.60
2018-04-12T10:41:59.771Z,54.87
2018-04-12T10:44:28.196Z,49.87
2018-04-12T10:46:56.366Z,48.37
2018-04-12T10:49:24.598Z,48.67
2018-04-12T10:51:54.488Z,48.60
2018-04-12T10:54:24.194Z,49.30
2018-04-12T10:56:52.426Z,53.07
2018-04-12T10:59:22.344Z,53.83
2018-04-12T11:01:51.783Z,51.70
2018-04-12T11:04:21.394Z,50.23
2018-04-12T11:06:51.094Z,53.17
2018-04-12T11:09:19.201Z,52.07
2018-04-12T11:11:48.943Z,51.40
2018-04-12T11:14:19.006Z,49.97
2018-04-12T11:16:47.235Z,50.50
2018-04-12T11:19:15.475Z,51.80
2018-04-12T11:21:44.118Z,50.53
2018-04-12T11:24:12.359Z,49.30
2018-04-12T11:26:41.355Z,50.33
2018-04-12T11:29:09.835Z,49.80
2018-04-12T11:31:39.601Z,50.07
2018-04-12T11:34:08.600Z,47.40
2018-04-12T11:36:36.935Z,46.23
2018-04-12T11:39:05.934Z,48.10
2018-04-12T11:41:34.929Z,47.80
2018-04-12T11:44:04.564Z,45.53
2018-04-12T11:46:34.314Z,43.30
2018-04-12T11:49:03.339Z,43.73
2018-04-12T11:51:31.930Z,42.33
2018-04-12T11:54:00.567Z,44.53
2018-04-12T11:56:28.839Z,43.23
2018-04-12T11:58:57.936Z,47.50
2018-04-12T12:01:27.671Z,41.10
2018-04-12T12:03:55.902Z,39.23
2018-04-12T12:06:25.550Z,42.17
2018-04-12T12:08:54.431Z,41.03
2018-04-12T12:11:23.430Z,41.63
2018-04-12T12:13:52.079Z,42.30
2018-04-12T12:16:22.059Z,39.17
2018-04-12T12:18:52.475Z,42.20
2018-04-12T12:21:20.710Z,39.50
2018-04-12T12:23:49.007Z,40.50
2018-04-12T12:26:18.747Z,41.87
2018-04-12T12:28:46.985Z,38.20
2018-04-12T12:31:15.219Z,40.53
2018-04-12T12:33:43.531Z,40.53
2018-04-12T12:36:11.762Z,39.87
2018-04-12T12:38:41.506Z,41.10
2018-04-12T12:41:10.934Z,39.50
2018-04-12T12:43:39.167Z,41.80
2018-04-12T12:46:08.910Z,39.80
2018-04-12T12:48:38.351Z,38.10
2018-04-12T12:51:07.351Z,38.87
2018-04-12T12:53:36.351Z,38.57
2018-04-12T12:56:09.635Z,41.43
2018-04-12T12:58:37.708Z,40.63
2018-04-12T13:01:05.939Z,40.87
2018-04-12T13:03:34.210Z,40.37
2018-04-12T13:06:02.442Z,39.17
2018-04-12T13:08:30.678Z,40.80
2018-04-12T13:10:58.955Z,42.57
2018-04-12T13:13:27.213Z,43.20
2018-04-12T13:15:55.431Z,39.40
2018-04-12T13:18:24.842Z,42.07
2018-04-12T13:20:54.583Z,40.67
2018-04-12T13:23:22.821Z,43.20
2018-04-12T13:25:51.108Z,41.53
2018-04-12T13:28:20.855Z,41.80
2018-04-12T13:30:49.090Z,41.33
2018-04-12T13:33:17.417Z,42.47
2018-04-12T13:35:45.611Z,41.37
2018-04-12T13:38:15.181Z,42.37
2018-04-12T13:40:46.699Z,41.20
2018-04-12T13:43:16.450Z,42.47
2018-04-12T13:45:44.683Z,40.23
2018-04-12T13:48:13.890Z,41.33
2018-04-12T13:50:42.893Z,41.20
2018-04-12T13:53:11.122Z,41.40
2018-04-12T13:55:40.259Z,43.57
2018-04-12T13:58:08.494Z,44.40
2018-04-12T14:00:36.727Z,43.10
2018-04-12T14:03:12.610Z,40.93
2018-04-12T14:05:41.619Z,42.47
2018-04-12T14:08:10.615Z,45.53
2018-04-12T14:10:39.165Z,44.53
2018-04-12T14:13:08.947Z,43.93
2018-04-12T14:15:38.511Z,43.20
2018-04-12T14:18:07.655Z,41.93
2018-04-12T14:20:37.635Z,41.53
2018-04-12T14:23:05.867Z,42.43
2018-04-12T14:25:34.919Z,41.03
2018-04-12T14:28:03.546Z,43.60
2018-04-12T14:30:32.551Z,41.97
2018-04-12T14:33:01.158Z,41.83
2018-04-12T14:35:29.790Z,43.00
2018-04-12T14:37:58.040Z,42.93
2018-04-12T14:40:26.571Z,44.17
2018-04-12T14:42:56.315Z,41.97
2018-04-12T14:45:24.947Z,44.40
2018-04-12T14:47:54.631Z,42.60
2018-04-12T14:50:22.862Z,45.90
2018-04-12T14:52:51.099Z,43.63
2018-04-12T14:55:19.666Z,41.03
2018-04-12T14:57:47.906Z,43.90
2018-04-12T15:00:16.943Z,45.47
2018-04-12T15:02:45.215Z,41.57
2018-04-12T15:05:13.450Z,43.60
2018-04-12T15:07:42.083Z,46.83
2018-04-12T15:10:11.735Z,43.40
2018-04-12T15:12:41.475Z,43.23
2018-04-12T15:15:10.481Z,42.60
2018-04-12T15:17:40.334Z,44.40
2018-04-12T15:20:08.966Z,45.83
2018-04-12T15:22:38.207Z,41.60
2018-04-12T15:25:06.879Z,41.97
2018-04-12T15:27:36.248Z,39.80
2018-04-12T15:30:04.483Z,43.07
2018-04-12T15:32:34.311Z,41.93
2018-04-12T15:35:02.428Z,40.03
2018-04-12T15:37:30.663Z,40.43
2018-04-12T15:39:59.462Z,43.80
2018-04-12T15:42:29.050Z,41.07
2018-04-12T15:44:57.158Z,40.40
2018-04-12T15:47:25.479Z,44.70
2018-04-12T15:49:55.227Z,38.87
2018-04-12T15:52:24.222Z,37.73
2018-04-12T15:54:52.496Z,36.27
2018-04-12T15:57:20.722Z,34.67
2018-04-12T15:59:50.461Z,35.47
2018-04-12T16:02:19.099Z,35.13
2018-04-12T16:04:48.107Z,34.50
2018-04-12T16:07:18.484Z,35.70
2018-04-12T16:09:48.148Z,36.97
2018-04-12T16:12:16.385Z,34.10
2018-04-12T16:14:44.617Z,35.50
2018-04-12T16:17:13.518Z,53.63
2018-04-12T16:19:42.524Z,36.27
2018-04-12T16:22:11.532Z,36.90
2018-04-12T16:24:40.520Z,36.60
2018-04-12T16:27:09.160Z,35.37
2018-04-12T16:29:37.387Z,37.50
2018-04-12T16:32:05.990Z,34.40
2018-04-12T16:34:34.231Z,36.80
2018-04-12T16:37:02.459Z,38.30
2018-04-12T16:39:31.980Z,34.50
2018-04-12T16:42:01.724Z,35.33
2018-04-12T16:44:30.349Z,35.90
2018-04-12T16:46:58.619Z,35.33
2018-04-12T16:49:28.206Z,36.57
2018-04-12T16:51:56.319Z,35.20
2018-04-12T16:54:25.491Z,35.53
2018-04-12T16:56:54.123Z,34.07
2018-04-12T16:59:22.367Z,33.30
2018-04-12T17:01:51.122Z,41.70
2018-04-12T17:04:19.350Z,34.37
2018-04-12T17:06:47.587Z,37.03
2018-04-12T17:09:16.075Z,34.80
2018-04-12T17:11:45.079Z,34.47
2018-04-12T17:14:14.074Z,34.37
2018-04-12T17:16:43.255Z,36.90
2018-04-12T17:19:11.523Z,34.47
2018-04-12T17:21:39.722Z,34.40
2018-04-12T17:24:08.846Z,33.07
2018-04-12T17:26:37.711Z,33.67
2018-04-12T17:29:05.959Z,34.07
2018-04-12T17:31:35.873Z,36.30
2018-04-12T17:34:04.106Z,44.67
2018-04-12T17:36:32.739Z,43.10
2018-04-12T17:39:02.361Z,38.00
2018-04-12T17:41:30.477Z,42.00
2018-04-12T17:43:58.710Z,39.27
2018-04-12T17:46:30.162Z,40.70
2018-04-12T17:48:58.800Z,45.83
2018-04-12T17:51:27.031Z,42.50
2018-04-12T17:53:55.562Z,42.30
2018-04-12T17:56:26.857Z,46.30
2018-04-12T17:58:55.667Z,43.77
2018-04-12T18:01:23.901Z,40.67
2018-04-12T18:03:53.646Z,47.17
2018-04-12T18:06:22.507Z,41.97
2018-04-12T18:08:51.510Z,46.27
2018-04-12T18:11:19.741Z,47.80
2018-04-12T18:13:49.422Z,43.43
2018-04-12T18:16:18.672Z,45.40
2018-04-12T18:18:46.906Z,86.83
2018-04-12T18:21:16.423Z,57.97
2018-04-12T18:23:46.166Z,53.73
2018-04-12T18:26:14.399Z,41.47
2018-04-12T18:28:43.487Z,46.87
2018-04-12T18:31:12.483Z,47.13
2018-04-12T18:33:42.066Z,47.50
2018-04-12T18:36:11.155Z,55.13
2018-04-12T18:38:40.898Z,51.37
2018-04-12T18:41:09.895Z,48.37
2018-04-12T18:43:39.669Z,50.17
2018-04-12T18:46:09.126Z,54.60
2018-04-12T18:48:38.590Z,58.53
2018-04-12T18:51:09.395Z,56.13
2018-04-12T18:53:38.854Z,52.40
2018-04-12T18:56:08.321Z,55.40
2018-04-12T18:58:37.981Z,51.70
2018-04-12T19:01:07.446Z,54.93
2018-04-12T19:03:36.893Z,52.30
2018-04-12T19:06:06.406Z,56.30
2018-04-12T19:08:35.862Z,49.63
2018-04-12T19:11:05.323Z,56.10
2018-04-12T19:13:35.526Z,50.83
2018-04-12T19:16:04.926Z,52.23
2018-04-12T19:18:34.384Z,58.13
2018-04-12T19:21:09.607Z,60.03
2018-04-12T19:23:39.062Z,54.07
2018-04-12T19:26:08.522Z,57.00
2018-04-12T19:28:38.103Z,53.73
2018-04-12T19:31:07.690Z,102.63
2018-04-12T19:33:37.151Z,58.57
2018-04-12T19:36:06.803Z,56.30
2018-04-12T19:38:36.258Z,52.60
2018-04-12T19:41:05.723Z,47.77
2018-04-12T19:43:35.414Z,48.30
2018-04-12T19:46:04.861Z,51.53
2018-04-12T19:48:34.318Z,46.13
2018-04-12T19:51:03.815Z,47.70
2018-04-12T19:53:33.266Z,46.10
2018-04-12T19:56:02.732Z,52.90
2018-04-12T19:58:32.902Z,38.60
2018-04-12T20:01:02.362Z,39.87
2018-04-12T20:03:31.827Z,33.20
2018-04-12T20:06:01.522Z,29.13
2018-04-12T20:08:30.982Z,29.57
2018-04-12T20:11:00.472Z,27.17
2018-04-12T20:13:30.262Z,26.87
2018-04-12T20:15:59.718Z,30.17
2018-04-12T20:18:29.173Z,26.90
2018-04-12T20:20:58.975Z,29.50
2018-04-12T20:23:28.415Z,24.83
2018-04-12T20:25:57.874Z,27.10
2018-04-12T20:28:27.643Z,25.10
2018-04-12T20:30:57.100Z,26.60
2018-04-12T20:33:27.113Z,28.07
2018-04-12T20:35:56.570Z,27.00
2018-04-12T20:38:26.108Z,28.23
2018-04-12T20:40:55.601Z,27.50
2018-04-12T20:43:25.058Z,28.90
2018-04-12T20:45:54.520Z,28.57
2018-04-12T20:48:24.298Z,30.53
2018-04-12T20:50:53.754Z,30.50
2018-04-12T20:53:23.213Z,31.93
2018-04-12T20:55:53.411Z,31.53
2018-04-12T20:58:22.872Z,30.10
2018-04-12T21:00:52.325Z,30.40
2018-04-12T21:03:21.821Z,32.10
2018-04-12T21:05:51.286Z,31.13
2018-04-12T21:08:20.764Z,29.97
2018-04-12T21:10:50.230Z,30.70
2018-04-12T21:13:19.681Z,31.47
2018-04-12T21:15:49.138Z,29.90
2018-04-12T21:18:18.735Z,33.27
2018-04-12T21:20:48.194Z,30.63
2018-04-12T21:23:17.646Z,33.20
2018-04-12T21:25:47.166Z,30.37
2018-04-12T21:28:16.627Z,39.77
2018-04-12T21:30:46.081Z,43.53
2018-04-12T21:33:16.191Z,33.97
2018-04-12T21:35:45.658Z,33.30
2018-04-12T21:38:15.127Z,33.53
2018-04-12T21:40:44.812Z,30.87
2018-04-12T21:43:14.270Z,33.53
2018-04-12T21:45:43.730Z,33.17
2018-04-12T21:48:13.258Z,29.67
2018-04-12T21:50:42.713Z,31.20
2018-04-12T21:53:12.169Z,29.47
2018-04-12T21:55:41.670Z,32.67
2018-04-12T21:58:11.121Z,33.37
2018-04-12T22:00:40.595Z,31.13
2018-04-12T22:03:10.285Z,30.70
2018-04-12T22:05:39.746Z,29.60
2018-04-12T22:08:09.206Z,28.50
2018-04-12T22:10:38.718Z,28.23
2018-04-12T22:13:08.174Z,29.30
2018-04-12T22:15:37.639Z,28.97
2018-04-12T22:18:07.394Z,26.47
2018-04-12T22:20:36.862Z,57.40
2018-04-12T22:23:06.325Z,108.80
2018-04-12T22:25:36.298Z,29.37
2018-04-12T22:28:05.751Z,28.07
2018-04-12T22:30:35.217Z,29.57
2018-04-12T22:33:04.705Z,31.40
2018-04-12T22:35:34.174Z,29.60
2018-04-12T22:38:03.630Z,30.60
2018-04-12T22:40:33.122Z,28.90
2018-04-12T22:43:02.588Z,29.17
2018-04-12T22:45:32.047Z,30.67
2018-04-12T22:48:01.639Z,28.83
2018-04-12T22:50:31.089Z,30.70
2018-04-12T22:53:00.555Z,29.43
2018-04-12T22:55:30.373Z,31.13
2018-04-12T22:57:59.830Z,31.97
2018-04-12T23:00:29.285Z,31.67
2018-04-12T23:02:59.891Z,33.07
2018-04-12T23:05:29.351Z,35.50
2018-04-12T23:07:58.811Z,31.80
2018-04-12T23:10:28.690Z,34.87
2018-04-12T23:12:58.154Z,34.17
2018-04-12T23:15:27.614Z,34.40
2018-04-12T23:17:57.107Z,31.73
2018-04-12T23:20:25.612Z,34.40
2018-04-12T23:22:55.194Z,34.80
2018-04-12T23:25:24.808Z,36.87
2018-04-12T23:27:54.266Z,32.17
2018-04-12T23:30:23.722Z,31.77
2018-04-12T23:32:52.519Z,32.57
2018-04-12T23:35:20.762Z,32.90
2018-04-12T23:37:49.198Z,31.20
2018-04-12T23:40:19.158Z,32.00
2018-04-12T23:42:47.395Z,37.60
2018-04-12T23:45:15.622Z,37.23
2018-04-12T23:47:45.403Z,36.03
2018-04-12T23:50:13.627Z,35.60
2018-04-12T23:52:43.210Z,37.37
2018-04-12T23:55:11.358Z,36.40
2018-04-12T23:57:39.595Z,36.20
